createdAt,value
2017-04-28T00:00:05.336Z,20.8
2017-04-28T00:02:13.443Z,20.8
2017-04-28T00:04:05.144Z,20.8
2017-04-28T00:06:07.390Z,20.8
2017-04-28T00:08:05.465Z,20.8
2017-04-28T00:10:17.871Z,20.8
2017-04-28T00:12:08.099Z,20.8
2017-04-28T00:14:10.382Z,20.8
2017-04-28T00:16:09.707Z,20.8
2017-04-28T00:18:07.676Z,20.8
2017-04-28T00:20:05.636Z,20.8
2017-04-28T00:22:07.430Z,20.8
2017-04-28T00:24:07.521Z,20.8
2017-04-28T00:26:05.539Z,20.8
2017-04-28T00:28:05.232Z,20.8
2017-04-28T00:30:05.058Z,20.8
2017-04-28T00:32:05.030Z,20.8
2017-04-28T00:34:07.313Z,20.8
2017-04-28T00:36:07.567Z,20.8
2017-04-28T00:38:05.595Z,20.8
2017-04-28T00:40:05.074Z,20.8
2017-04-28T00:42:09.806Z,20.8
2017-04-28T00:44:05.613Z,20.8
2017-04-28T00:46:05.320Z,20.8
2017-04-28T00:48:04.987Z,20.8
2017-04-28T00:50:05.055Z,20.8
2017-04-28T00:52:07.286Z,20.8
2017-04-28T00:54:04.949Z,20.8
2017-04-28T00:56:05.051Z,20.8
2017-04-28T00:58:04.943Z,20.8
2017-04-28T01:00:04.797Z,20.8
2017-04-28T01:02:05.805Z,20.8
2017-04-28T01:04:05.070Z,20.8
2017-04-28T01:06:04.820Z,20.8
2017-04-28T01:08:05.676Z,20.8
2017-04-28T01:10:05.362Z,20.8
2017-04-28T01:12:05.244Z,20.8
2017-04-28T01:14:07.818Z,20.8
2017-04-28T01:16:08.058Z,20.8
2017-04-28T01:18:05.027Z,20.7
2017-04-28T01:20:07.579Z,20.8
2017-04-28T01:22:05.223Z,20.7
2017-04-28T01:24:05.481Z,20.8
2017-04-28T01:26:05.463Z,20.8
2017-04-28T01:28:15.186Z,20.8
2017-04-28T01:30:04.857Z,20.7
2017-04-28T01:32:08.444Z,20.8
2017-04-28T01:34:04.773Z,20.7
2017-04-28T01:36:08.033Z,20.8
2017-04-28T01:38:05.078Z,20.7
2017-04-28T01:40:07.346Z,20.7
2017-04-28T01:42:07.556Z,20.7
2017-04-28T01:44:05.162Z,20.7
2017-04-28T01:46:04.904Z,20.7
2017-04-28T01:48:05.155Z,20.7
2017-04-28T01:50:05.163Z,20.7
2017-04-28T01:52:05.447Z,20.7
2017-04-28T01:54:05.136Z,20.7
2017-04-28T01:56:05.627Z,20.7
2017-04-28T01:58:07.853Z,20.7
2017-04-28T02:00:07.742Z,20.7
2017-04-28T02:02:05.800Z,20.7
2017-04-28T02:04:05.513Z,20.7
2017-04-28T02:06:04.870Z,20.7
2017-04-28T02:08:08.349Z,20.7
2017-04-28T02:10:07.581Z,20.7
2017-04-28T02:12:05.250Z,20.7
2017-04-28T02:14:05.142Z,20.7
2017-04-28T02:16:07.530Z,20.7
2017-04-28T02:18:05.454Z,20.7
2017-04-28T02:20:05.424Z,20.7
2017-04-28T02:22:07.749Z,20.7
2017-04-28T02:24:05.512Z,20.7
2017-04-28T02:26:05.609Z,20.7
2017-04-28T02:28:05.371Z,20.7
2017-04-28T02:30:04.605Z,20.7
2017-04-28T02:32:05.501Z,20.7
2017-04-28T02:34:05.258Z,20.7
2017-04-28T02:36:04.981Z,20.7
2017-04-28T02:38:04.892Z,20.7
2017-04-28T02:40:04.622Z,20.7
2017-04-28T02:42:05.314Z,20.7
2017-04-28T02:44:05.045Z,20.7
2017-04-28T02:46:04.781Z,20.7
2017-04-28T02:48:05.145Z,20.7
2017-04-28T02:50:07.523Z,20.7
2017-04-28T02:52:05.230Z,20.7
2017-04-28T02:54:04.940Z,20.7
2017-04-28T02:56:07.267Z,20.7
2017-04-28T02:58:04.947Z,20.7
2017-04-28T03:00:05.648Z,20.7
2017-04-28T03:02:07.743Z,20.7
2017-04-28T03:04:13.255Z,20.7
2017-04-28T03:06:04.986Z,20.7
2017-04-28T03:08:05.326Z,20.7
2017-04-28T03:10:05.519Z,20.7
2017-04-28T03:12:07.736Z,20.7
2017-04-28T03:14:05.474Z,20.7
2017-04-28T03:16:05.219Z,20.7
2017-04-28T03:18:05.187Z,20.7
2017-04-28T03:20:05.181Z,20.7
2017-04-28T03:22:07.419Z,20.7
2017-04-28T03:24:05.293Z,20.7
2017-04-28T03:26:05.040Z,20.7
2017-04-28T03:28:09.857Z,20.6
2017-04-28T03:30:05.749Z,20.6
2017-04-28T03:32:05.567Z,20.6
2017-04-28T03:34:10.562Z,20.6
2017-04-28T03:36:05.764Z,20.6
2017-04-28T03:38:05.485Z,20.6
2017-04-28T03:40:04.700Z,20.7
2017-04-28T03:42:05.693Z,20.6
2017-04-28T03:44:05.414Z,20.6
2017-04-28T03:46:05.133Z,20.6
2017-04-28T03:48:05.686Z,20.6
2017-04-28T03:50:05.399Z,20.6
2017-04-28T03:52:09.826Z,20.6
2017-04-28T03:54:05.919Z,20.6
2017-04-28T03:56:05.669Z,20.6
2017-04-28T03:58:07.883Z,20.6
2017-04-28T04:00:05.769Z,20.6
2017-04-28T04:02:05.530Z,20.6
2017-04-28T04:04:04.791Z,20.6
2017-04-28T04:06:05.658Z,20.6
2017-04-28T04:08:08.040Z,20.6
2017-04-28T04:10:04.768Z,20.6
2017-04-28T04:12:05.574Z,20.6
2017-04-28T04:14:10.345Z,20.6
2017-04-28T04:16:05.051Z,20.6
2017-04-28T04:18:05.108Z,20.6
2017-04-28T04:20:04.817Z,20.6
2017-04-28T04:22:05.538Z,20.6
2017-04-28T04:24:05.722Z,20.6
2017-04-28T04:26:08.017Z,20.6
2017-04-28T04:28:04.759Z,20.6
2017-04-28T04:30:10.884Z,20.6
2017-04-28T04:32:04.603Z,20.6
2017-04-28T04:34:07.796Z,20.6
2017-04-28T04:36:05.650Z,20.6
2017-04-28T04:38:05.482Z,20.6
2017-04-28T04:40:07.308Z,20.6
2017-04-28T04:42:05.149Z,20.6
2017-04-28T04:44:04.835Z,20.6
2017-04-28T04:46:05.592Z,20.6
2017-04-28T04:48:05.565Z,20.6
2017-04-28T04:50:10.354Z,20.6
2017-04-28T04:52:04.599Z,20.6
2017-04-28T04:54:08.121Z,20.6
2017-04-28T04:56:05.143Z,20.6
2017-04-28T04:58:04.880Z,20.6
2017-04-28T05:00:05.933Z,20.6
2017-04-28T05:02:04.685Z,20.6
2017-04-28T05:04:10.547Z,20.6
2017-04-28T05:06:08.181Z,20.6
2017-04-28T05:08:09.897Z,20.6
2017-04-28T05:10:05.600Z,20.6
2017-04-28T05:12:05.693Z,20.6
2017-04-28T05:14:05.463Z,20.6
2017-04-28T05:16:04.747Z,20.6
2017-04-28T05:18:08.162Z,20.6
2017-04-28T05:20:04.952Z,20.7
2017-04-28T05:22:05.187Z,20.7
2017-04-28T05:24:05.235Z,20.7
2017-04-28T05:26:04.976Z,20.7
2017-04-28T05:28:04.995Z,20.6
2017-04-28T05:30:05.146Z,20.6
2017-04-28T05:32:04.877Z,20.6
2017-04-28T05:34:04.689Z,20.6
2017-04-28T05:36:05.727Z,20.6
2017-04-28T05:38:04.877Z,20.6
2017-04-28T05:40:08.160Z,20.6
2017-04-28T05:42:05.228Z,20.6
2017-04-28T05:44:05.213Z,20.6
2017-04-28T05:46:05.625Z,20.6
2017-04-28T05:48:07.597Z,20.6
2017-04-28T05:50:05.362Z,20.6
2017-04-28T05:52:05.214Z,20.6
2017-04-28T05:54:05.277Z,20.6
2017-04-28T05:56:08.003Z,20.6
2017-04-28T05:58:04.697Z,20.6
2017-04-28T06:00:05.860Z,20.6
2017-04-28T06:02:05.094Z,20.6
2017-04-28T06:04:04.951Z,20.6
2017-04-28T06:06:05.431Z,20.6
2017-04-28T06:08:12.854Z,20.5
2017-04-28T06:10:08.117Z,20.5
2017-04-28T06:12:10.730Z,20.5
2017-04-28T06:14:07.971Z,20.5
2017-04-28T06:16:04.928Z,20.5
2017-04-28T06:18:11.530Z,20.5
2017-04-28T06:20:07.238Z,20.5
2017-04-28T06:22:04.919Z,20.5
2017-04-28T06:24:10.095Z,20.4
2017-04-28T06:26:05.338Z,20.5
2017-04-28T06:28:05.604Z,20.5
2017-04-28T06:30:05.527Z,20.5
2017-04-28T06:32:05.398Z,20.4
2017-04-28T06:34:05.093Z,20.4
2017-04-28T06:36:07.662Z,20.4
2017-04-28T06:38:05.451Z,20.4
2017-04-28T06:40:07.274Z,20.4
2017-04-28T06:42:05.342Z,20.4
2017-04-28T06:44:05.039Z,20.4
2017-04-28T06:46:04.707Z,20.4
2017-04-28T06:48:05.728Z,20.4
2017-04-28T06:50:05.485Z,20.4
2017-04-28T06:52:05.185Z,20.4
2017-04-28T06:54:05.002Z,20.4
2017-04-28T06:56:09.739Z,20.4
2017-04-28T06:58:10.557Z,20.4
2017-04-28T07:00:07.977Z,20.4
2017-04-28T07:02:07.204Z,20.4
2017-04-28T07:04:04.993Z,20.4
2017-04-28T07:06:05.042Z,20.4
2017-04-28T07:08:05.259Z,20.4
2017-04-28T07:10:04.932Z,20.4
2017-04-28T07:12:04.734Z,20.4
2017-04-28T07:14:05.509Z,20.5
2017-04-28T07:16:05.209Z,20.4
2017-04-28T07:18:05.497Z,20.4
2017-04-28T07:20:08.299Z,20.4
2017-04-28T07:22:10.562Z,20.4
2017-04-28T07:24:05.503Z,20.4
2017-04-28T07:26:05.241Z,20.4
2017-04-28T07:28:04.936Z,20.4
2017-04-28T07:30:10.084Z,20.4
2017-04-28T07:32:04.743Z,20.4
2017-04-28T07:34:10.625Z,20.4
2017-04-28T07:36:05.459Z,20.4
2017-04-28T07:38:10.480Z,20.4
2017-04-28T07:40:04.717Z,20.4
2017-04-28T07:42:10.608Z,20.4
2017-04-28T07:44:04.872Z,20.4
2017-04-28T07:46:05.568Z,20.4
2017-04-28T07:48:05.645Z,20.5
2017-04-28T07:50:12.429Z,20.5
2017-04-28T07:52:05.597Z,20.5
2017-04-28T07:54:08.352Z,20.5
2017-04-28T07:56:05.271Z,20.5
2017-04-28T07:58:05.006Z,20.5
2017-04-28T08:00:04.897Z,20.6
2017-04-28T08:02:10.639Z,20.5
2017-04-28T08:04:05.348Z,20.5
2017-04-28T08:06:05.392Z,20.6
2017-04-28T08:08:05.335Z,20.5
2017-04-28T08:10:05.043Z,20.5
2017-04-28T08:12:05.065Z,20.6
2017-04-28T08:14:05.329Z,20.5
2017-04-28T08:16:07.567Z,20.6
2017-04-28T08:18:05.854Z,20.6
2017-04-28T08:20:08.236Z,20.6
2017-04-28T08:22:07.461Z,20.5
2017-04-28T08:24:04.918Z,20.5
2017-04-28T08:26:14.940Z,20.6
2017-04-28T08:28:09.656Z,20.5
2017-04-28T08:30:05.649Z,20.5
2017-04-28T08:32:05.300Z,20.5
2017-04-28T08:34:04.979Z,20.5
2017-04-28T08:36:04.788Z,20.5
2017-04-28T08:38:07.519Z,20.5
2017-04-28T08:40:05.096Z,20.5
2017-04-28T08:42:05.098Z,20.5
2017-04-28T08:44:07.345Z,20.5
2017-04-28T08:46:05.048Z,20.5
2017-04-28T08:48:07.689Z,20.5
2017-04-28T08:50:05.488Z,20.5
2017-04-28T08:52:05.253Z,20.5
2017-04-28T08:54:05.296Z,20.5
2017-04-28T08:56:05.574Z,20.5
2017-04-28T08:58:05.295Z,20.5
2017-04-28T09:00:05.342Z,20.5
2017-04-28T09:02:05.110Z,20.5
2017-04-28T09:04:04.768Z,20.5
2017-04-28T09:06:06.048Z,20.5
2017-04-28T09:08:04.819Z,20.5
2017-04-28T09:10:05.522Z,20.5
2017-04-28T09:12:05.585Z,20.5
2017-04-28T09:14:05.272Z,20.5
2017-04-28T09:16:05.083Z,20.5
2017-04-28T09:18:08.365Z,20.6
2017-04-28T09:20:05.570Z,20.6
2017-04-28T09:22:05.238Z,20.6
2017-04-28T09:24:05.092Z,20.6
2017-04-28T09:26:09.850Z,20.6
2017-04-28T09:28:06.125Z,20.6
2017-04-28T09:30:15.380Z,20.6
2017-04-28T09:32:05.211Z,20.6
2017-04-28T09:34:12.771Z,20.6
2017-04-28T09:36:05.881Z,20.6
2017-04-28T09:38:05.562Z,20.6
2017-04-28T09:40:04.775Z,20.6
2017-04-28T09:42:05.801Z,20.6
2017-04-28T09:44:05.825Z,20.6
2017-04-28T09:46:05.560Z,20.6
2017-04-28T09:48:08.030Z,20.6
2017-04-28T09:50:04.696Z,20.6
2017-04-28T09:52:05.379Z,20.6
2017-04-28T09:54:05.191Z,20.6
2017-04-28T09:56:04.886Z,20.6
2017-04-28T09:58:08.154Z,20.6
2017-04-28T10:00:05.141Z,20.6
2017-04-28T10:02:04.979Z,20.5
2017-04-28T10:04:04.954Z,20.6
2017-04-28T10:06:04.992Z,20.5
2017-04-28T10:08:12.311Z,20.6
2017-04-28T10:10:05.136Z,20.5
2017-04-28T10:12:05.179Z,20.5
2017-04-28T10:14:07.490Z,20.6
2017-04-28T10:16:05.541Z,20.6
2017-04-28T10:18:05.954Z,20.6
2017-04-28T10:20:04.659Z,20.6
2017-04-28T10:22:05.372Z,20.6
2017-04-28T10:24:05.361Z,20.6
2017-04-28T10:26:07.576Z,20.7
2017-04-28T10:28:05.274Z,20.7
2017-04-28T10:30:05.385Z,20.7
2017-04-28T10:32:05.297Z,20.7
2017-04-28T10:34:05.029Z,20.7
2017-04-28T10:36:05.090Z,20.7
2017-04-28T10:38:12.501Z,20.7
2017-04-28T10:40:05.246Z,20.7
2017-04-28T10:42:05.197Z,20.7
2017-04-28T10:44:07.521Z,20.8
2017-04-28T10:46:05.247Z,20.8
2017-04-28T10:48:05.385Z,20.8
2017-04-28T10:50:05.601Z,20.8
2017-04-28T10:52:05.573Z,20.8
2017-04-28T10:54:06.482Z,20.8
2017-04-28T10:56:04.725Z,20.8
2017-04-28T10:58:05.410Z,20.8
2017-04-28T11:00:12.448Z,20.8
2017-04-28T11:02:05.180Z,20.8
2017-04-28T11:04:05.579Z,20.8
2017-04-28T11:06:05.410Z,20.8
2017-04-28T11:08:07.632Z,20.8
2017-04-28T11:10:05.329Z,20.8
2017-04-28T11:12:10.349Z,20.8
2017-04-28T11:14:10.126Z,20.8
2017-04-28T11:16:04.883Z,20.8
2017-04-28T11:18:05.055Z,20.7
2017-04-28T11:20:05.067Z,20.7
2017-04-28T11:22:07.306Z,20.7
2017-04-28T11:24:05.485Z,20.7
2017-04-28T11:26:15.365Z,20.7
2017-04-28T11:28:05.077Z,20.7
2017-04-28T11:30:10.172Z,20.8
2017-04-28T11:32:07.373Z,20.7
2017-04-28T11:34:05.105Z,20.8
2017-04-28T11:36:05.691Z,20.7
2017-04-28T11:38:05.424Z,20.7
2017-04-28T11:40:05.193Z,20.8
2017-04-28T11:42:05.244Z,20.8
2017-04-28T11:44:07.923Z,20.8
2017-04-28T11:46:04.657Z,20.7
2017-04-28T11:48:05.728Z,20.8
2017-04-28T11:50:05.585Z,20.8
2017-04-28T11:52:05.639Z,20.7
2017-04-28T11:54:08.161Z,20.8
2017-04-28T11:56:05.267Z,20.7
2017-04-28T11:58:04.986Z,20.8
2017-04-28T12:00:04.993Z,20.8
2017-04-28T12:02:04.893Z,20.8
2017-04-28T12:04:06.271Z,20.8
2017-04-28T12:06:05.533Z,20.8
2017-04-28T12:08:08.068Z,20.8
2017-04-28T12:10:07.951Z,20.8
2017-04-28T12:12:04.777Z,20.8
2017-04-28T12:14:05.036Z,20.8
2017-04-28T12:16:14.941Z,20.8
2017-04-28T12:18:05.337Z,20.8
2017-04-28T12:20:05.107Z,20.8
2017-04-28T12:22:09.864Z,20.8
2017-04-28T12:24:05.431Z,20.8
2017-04-28T12:26:05.129Z,20.8
2017-04-28T12:28:05.331Z,20.8
2017-04-28T12:30:05.324Z,20.8
2017-04-28T12:32:05.789Z,20.8
2017-04-28T12:34:04.732Z,20.8
2017-04-28T12:36:10.663Z,20.8
2017-04-28T12:38:05.424Z,20.8
2017-04-28T12:40:04.994Z,20.8
2017-04-28T12:42:05.061Z,20.8
2017-04-28T12:44:07.786Z,20.8
2017-04-28T12:46:05.489Z,20.8
2017-04-28T12:48:05.595Z,20.8
2017-04-28T12:50:05.252Z,20.8
2017-04-28T12:52:04.927Z,20.8
2017-04-28T12:54:05.421Z,20.8
2017-04-28T12:56:05.347Z,20.8
2017-04-28T12:58:05.032Z,20.8
2017-04-28T13:00:05.032Z,20.8
2017-04-28T13:02:04.754Z,20.8
2017-04-28T13:04:05.478Z,20.8
2017-04-28T13:06:07.831Z,20.8
2017-04-28T13:08:05.512Z,20.8
2017-04-28T13:10:07.728Z,20.8
2017-04-28T13:12:06.367Z,20.8
2017-04-28T13:14:05.060Z,20.8
2017-04-28T13:16:05.469Z,20.8
2017-04-28T13:18:08.077Z,20.7
2017-04-28T13:20:05.454Z,20.7
2017-04-28T13:22:05.433Z,20.8
2017-04-28T13:24:05.348Z,20.7
2017-04-28T13:26:05.136Z,20.7
2017-04-28T13:28:05.834Z,20.8
2017-04-28T13:30:08.414Z,20.8
2017-04-28T13:32:04.634Z,20.7
2017-04-28T13:34:05.446Z,20.8
2017-04-28T13:36:05.437Z,20.7
2017-04-28T13:38:05.164Z,20.8
2017-04-28T13:40:04.868Z,20.7
2017-04-28T13:42:08.249Z,20.8
2017-04-28T13:44:05.282Z,20.8
2017-04-28T13:46:07.526Z,20.8
2017-04-28T13:48:07.910Z,20.8
2017-04-28T13:50:04.623Z,20.8
2017-04-28T13:52:07.867Z,20.8
2017-04-28T13:54:05.499Z,20.8
2017-04-28T13:56:07.725Z,20.8
2017-04-28T13:58:10.609Z,20.8
2017-04-28T14:00:05.181Z,20.8
2017-04-28T14:02:09.885Z,20.8
2017-04-28T14:04:10.133Z,20.8
2017-04-28T14:06:05.167Z,20.8
2017-04-28T14:08:04.981Z,20.8
2017-04-28T14:10:04.762Z,20.8
2017-04-28T14:12:05.687Z,20.8
2017-04-28T14:14:05.421Z,20.8
2017-04-28T14:16:05.413Z,20.8
2017-04-28T14:18:05.207Z,20.8
2017-04-28T14:20:05.483Z,20.8
2017-04-28T14:22:05.227Z,20.8
2017-04-28T14:24:07.810Z,20.8
2017-04-28T14:26:05.558Z,20.8
2017-04-28T14:28:05.286Z,20.8
2017-04-28T14:30:07.845Z,20.8
2017-04-28T14:32:06.718Z,20.8
2017-04-28T14:34:04.672Z,20.8
2017-04-28T14:36:05.539Z,20.8
2017-04-28T14:38:07.879Z,20.8
2017-04-28T14:40:05.567Z,20.8
2017-04-28T14:42:05.107Z,20.8
2017-04-28T14:44:04.830Z,20.9
2017-04-28T14:46:05.525Z,20.9
2017-04-28T14:48:05.163Z,20.8
2017-04-28T14:50:05.367Z,20.8
2017-04-28T14:52:05.043Z,20.8
2017-04-28T14:54:05.034Z,20.9
2017-04-28T14:56:07.291Z,20.8
2017-04-28T14:58:07.545Z,20.8
2017-04-28T15:00:10.559Z,20.8
2017-04-28T15:02:05.261Z,20.9
2017-04-28T15:04:07.833Z,20.8
2017-04-28T15:06:05.904Z,20.8
2017-04-28T15:08:05.625Z,20.8
2017-04-28T15:10:04.884Z,20.8
2017-04-28T15:12:04.915Z,20.8
2017-04-28T15:14:07.168Z,20.8
2017-04-28T15:16:04.867Z,20.8
2017-04-28T15:18:05.594Z,20.8
2017-04-28T15:20:05.836Z,20.8
2017-04-28T15:22:05.667Z,20.8
2017-04-28T15:24:05.542Z,20.8
2017-04-28T15:26:05.232Z,20.8
2017-04-28T15:28:04.923Z,20.8
2017-04-28T15:30:04.944Z,20.8
2017-04-28T15:32:04.636Z,20.8
2017-04-28T15:34:10.419Z,20.8
2017-04-28T15:36:05.077Z,20.8
2017-04-28T15:38:05.415Z,20.8
2017-04-28T15:40:07.735Z,20.8
2017-04-28T15:42:05.135Z,20.8
2017-04-28T15:44:04.808Z,20.8
2017-04-28T15:46:05.617Z,20.8
2017-04-28T15:48:05.520Z,20.8
2017-04-28T15:50:05.189Z,20.8
2017-04-28T15:52:05.149Z,20.8
2017-04-28T15:54:05.225Z,20.8
2017-04-28T15:56:05.008Z,20.7
2017-04-28T15:58:07.250Z,20.4
2017-04-28T16:00:07.643Z,20.3
2017-04-28T16:02:05.448Z,20.3
2017-04-28T16:04:10.219Z,20.1
2017-04-28T16:06:07.638Z,20
2017-04-28T16:08:11.007Z,19.9
2017-04-28T16:10:04.898Z,19.9
2017-04-28T16:12:06.002Z,19.9
2017-04-28T16:14:04.907Z,19.9
2017-04-28T16:16:05.075Z,19.9
2017-04-28T16:18:08.575Z,19.8
2017-04-28T16:20:04.770Z,19.8
2017-04-28T16:22:08.030Z,19.7
2017-04-28T16:24:10.126Z,19.6
2017-04-28T16:26:04.839Z,19.6
2017-04-28T16:28:05.610Z,19.6
2017-04-28T16:30:05.437Z,19.5
2017-04-28T16:32:04.909Z,19.5
2017-04-28T16:34:04.692Z,19.4
2017-04-28T16:36:05.624Z,19.4
2017-04-28T16:38:05.305Z,19.3
2017-04-28T16:40:05.158Z,19.4
2017-04-28T16:42:05.654Z,19.4
2017-04-28T16:44:05.548Z,19.4
2017-04-28T16:46:12.861Z,19.5
2017-04-28T16:48:05.786Z,19.5
2017-04-28T16:50:07.965Z,19.6
2017-04-28T16:52:05.277Z,19.6
2017-04-28T16:54:07.636Z,19.6
2017-04-28T16:56:05.517Z,19.6
2017-04-28T16:58:05.205Z,19.7
2017-04-28T17:00:10.231Z,19.6
2017-04-28T17:02:04.936Z,19.5
2017-04-28T17:04:04.647Z,19.5
2017-04-28T17:06:05.634Z,19.5
2017-04-28T17:08:05.438Z,19.4
2017-04-28T17:10:05.190Z,19.4
2017-04-28T17:12:10.387Z,19.3
2017-04-28T17:14:04.643Z,19.3
2017-04-28T17:16:05.377Z,19.3
2017-04-28T17:18:05.054Z,19.3
2017-04-28T17:20:07.878Z,19.2
2017-04-28T17:22:05.588Z,19.2
2017-04-28T17:24:08.189Z,19.2
2017-04-28T17:26:04.886Z,19.2
2017-04-28T17:28:05.874Z,19.2
2017-04-28T17:30:08.463Z,19
2017-04-28T17:32:05.207Z,19
2017-04-28T17:34:04.920Z,19.1
2017-04-28T17:36:05.099Z,19
2017-04-28T17:38:05.370Z,19.2
2017-04-28T17:40:05.619Z,19.6
2017-04-28T17:42:08.275Z,20.1
2017-04-28T17:44:05.306Z,20.1
2017-04-28T17:46:05.528Z,20.2
2017-04-28T17:48:05.566Z,20.3
2017-04-28T17:50:05.268Z,20.3
2017-04-28T17:52:05.017Z,20.3
2017-04-28T17:54:04.978Z,20.3
2017-04-28T17:56:09.801Z,20.3
2017-04-28T17:58:05.583Z,20.3
2017-04-28T18:00:05.685Z,20.3
2017-04-28T18:02:05.403Z,20.3
2017-04-28T18:04:05.115Z,20.3
2017-04-28T18:06:04.958Z,20.2
2017-04-28T18:08:04.732Z,20.1
2017-04-28T18:10:05.406Z,19.9
2017-04-28T18:12:10.450Z,19.7
2017-04-28T18:14:04.705Z,19.7
2017-04-28T18:16:08.099Z,19.7
2017-04-28T18:18:05.874Z,19.6
2017-04-28T18:20:10.642Z,19.6
2017-04-28T18:22:04.922Z,19.6
2017-04-28T18:24:05.703Z,19.6
2017-04-28T18:26:05.571Z,19.5
2017-04-28T18:28:04.815Z,19.6
2017-04-28T18:30:15.724Z,19.7
2017-04-28T18:32:10.916Z,19.8
2017-04-28T18:34:05.587Z,19.8
2017-04-28T18:36:05.560Z,19.8
2017-04-28T18:38:05.276Z,19.8
2017-04-28T18:40:05.244Z,19.9
2017-04-28T18:42:05.093Z,19.9
2017-04-28T18:44:04.797Z,19.9
2017-04-28T18:46:05.473Z,19.9
2017-04-28T18:48:10.530Z,19.9
2017-04-28T18:50:04.816Z,20
2017-04-28T18:52:10.707Z,19.9
2017-04-28T18:54:05.510Z,19.9
2017-04-28T18:56:05.361Z,19.7
2017-04-28T18:58:06.611Z,19.5
2017-04-28T19:00:05.578Z,19.4
2017-04-28T19:02:04.750Z,19.3
2017-04-28T19:04:05.268Z,19.2
2017-04-28T19:06:05.270Z,19.1
2017-04-28T19:08:05.703Z,19
2017-04-28T19:10:05.392Z,19
2017-04-28T19:12:05.901Z,18.9
2017-04-28T19:14:05.572Z,18.9
2017-04-28T19:16:05.254Z,18.8
2017-04-28T19:18:05.519Z,18.7
2017-04-28T19:20:05.062Z,18.7
2017-04-28T19:22:12.511Z,18.7
2017-04-28T19:24:08.010Z,18.6
2017-04-28T19:26:09.773Z,18.6
2017-04-28T19:28:08.094Z,18.5
2017-04-28T19:30:10.029Z,18.5
2017-04-28T19:32:05.337Z,18.5
2017-04-28T19:34:07.584Z,18.3
2017-04-28T19:36:05.524Z,18.4
2017-04-28T19:38:05.262Z,18.3
2017-04-28T19:40:04.965Z,18.4
2017-04-28T19:42:04.668Z,18.5
2017-04-28T19:44:05.570Z,18.6
2017-04-28T19:46:05.460Z,18.8
2017-04-28T19:48:04.729Z,18.8
2017-04-28T19:50:05.218Z,18.9
2017-04-28T19:52:05.113Z,19
2017-04-28T19:54:09.860Z,19.1
2017-04-28T19:56:05.884Z,19.1
2017-04-28T19:58:05.651Z,19.1
2017-04-28T20:00:04.631Z,19.2
2017-04-28T20:02:05.728Z,19.2
2017-04-28T20:04:05.486Z,19.3
2017-04-28T20:06:05.247Z,19.3
2017-04-28T20:08:05.208Z,19.3
2017-04-28T20:10:04.922Z,19.4
2017-04-28T20:12:04.665Z,19.4
2017-04-28T20:14:05.528Z,19.4
2017-04-28T20:16:05.285Z,19.4
2017-04-28T20:18:05.418Z,19.4
2017-04-28T20:20:05.442Z,19.5
2017-04-28T20:22:09.887Z,19.5
2017-04-28T20:24:05.919Z,19.5
2017-04-28T20:26:05.880Z,19.6
2017-04-28T20:28:05.557Z,19.6
2017-04-28T20:30:05.287Z,19.6
2017-04-28T20:32:05.378Z,19.6
2017-04-28T20:34:05.129Z,19.7
2017-04-28T20:36:05.391Z,19.7
2017-04-28T20:38:07.438Z,19.7
2017-04-28T20:40:05.559Z,19.7
2017-04-28T20:42:05.296Z,19.7
2017-04-28T20:44:05.949Z,19.6
2017-04-28T20:46:04.697Z,19.6
2017-04-28T20:48:05.485Z,19.5
2017-04-28T20:50:05.640Z,19.5
2017-04-28T20:52:05.354Z,19.5
2017-04-28T20:54:04.602Z,19.4
2017-04-28T20:56:06.322Z,19.4
2017-04-28T20:58:07.734Z,19.4
2017-04-28T21:00:05.426Z,19.4
2017-04-28T21:02:04.824Z,19.4
2017-04-28T21:04:08.061Z,19.6
2017-04-28T21:06:05.101Z,19.6
2017-04-28T21:08:05.179Z,19.6
2017-04-28T21:10:07.396Z,19.7
2017-04-28T21:12:05.399Z,19.7
2017-04-28T21:14:05.509Z,19.8
2017-04-28T21:16:07.257Z,19.9
2017-04-28T21:18:04.698Z,19.9
2017-04-28T21:20:05.129Z,19.9
2017-04-28T21:22:05.394Z,19.9
2017-04-28T21:24:07.311Z,20
2017-04-28T21:26:05.272Z,20.1
2017-04-28T21:28:05.560Z,20.1
2017-04-28T21:30:05.286Z,20.1
2017-04-28T21:32:05.464Z,20.1
2017-04-28T21:34:07.696Z,20.2
2017-04-28T21:36:05.658Z,20.2
2017-04-28T21:38:05.736Z,20.2
2017-04-28T21:40:05.257Z,20.2
2017-04-28T21:42:05.015Z,20.2
2017-04-28T21:44:07.486Z,20.3
2017-04-28T21:46:04.691Z,20.3
2017-04-28T21:48:05.450Z,20.4
2017-04-28T21:50:10.566Z,20.4
2017-04-28T21:52:08.079Z,20.4
2017-04-28T21:54:07.361Z,20.4
2017-04-28T21:56:08.456Z,20.4
2017-04-28T21:58:05.184Z,20.4
2017-04-28T22:00:04.984Z,20.4
2017-04-28T22:02:04.859Z,20.5
2017-04-28T22:04:08.154Z,20.5
2017-04-28T22:06:04.872Z,20.5
2017-04-28T22:08:05.887Z,20.5
2017-04-28T22:10:05.559Z,20.6
2017-04-28T22:12:04.946Z,20.6
2017-04-28T22:14:05.490Z,20.6
2017-04-28T22:16:08.043Z,20.6
2017-04-28T22:18:04.946Z,20.7
2017-04-28T22:20:04.937Z,20.7
2017-04-28T22:22:07.158Z,20.7
2017-04-28T22:24:04.812Z,20.7
2017-04-28T22:26:05.670Z,20.7
2017-04-28T22:28:07.880Z,20.7
2017-04-28T22:30:05.610Z,20.7
2017-04-28T22:32:05.596Z,20.7
2017-04-28T22:34:05.419Z,20.8
2017-04-28T22:36:05.118Z,20.8
2017-04-28T22:38:05.002Z,20.8
2017-04-28T22:40:06.025Z,20.8
2017-04-28T22:42:07.598Z,20.7
2017-04-28T22:44:05.470Z,20.7
2017-04-28T22:46:05.163Z,20.7
2017-04-28T22:48:05.762Z,20.8
2017-04-28T22:50:05.845Z,20.8
2017-04-28T22:52:05.605Z,20.8
2017-04-28T22:54:04.820Z,20.9
2017-04-28T22:56:10.686Z,20.9
2017-04-28T22:58:05.416Z,20.9
2017-04-28T23:00:05.086Z,20.9
2017-04-28T23:02:05.078Z,20.9
2017-04-28T23:04:05.119Z,21
2017-04-28T23:06:09.935Z,21
2017-04-28T23:08:20.131Z,21
2017-04-28T23:10:09.973Z,21
2017-04-28T23:12:04.722Z,21
2017-04-28T23:14:10.444Z,21
2017-04-28T23:16:05.176Z,21
2017-04-28T23:18:05.128Z,21.1
2017-04-28T23:20:05.058Z,21.1
2017-04-28T23:22:04.753Z,21.1
2017-04-28T23:24:05.465Z,21.1
2017-04-28T23:26:05.427Z,21.1
2017-04-28T23:28:04.677Z,21.1
2017-04-28T23:30:05.441Z,21.1
2017-04-28T23:32:05.435Z,21.1
2017-04-28T23:34:07.704Z,21.2
2017-04-28T23:36:05.706Z,21.2
2017-04-28T23:38:05.727Z,21.2
2017-04-28T23:40:05.414Z,21.2
2017-04-28T23:42:07.657Z,21.2
2017-04-28T23:44:08.158Z,21.2
2017-04-28T23:46:04.882Z,21.3
2017-04-28T23:48:05.621Z,21.2
2017-04-28T23:50:08.274Z,21.3
2017-04-28T23:52:04.855Z,21.2
2017-04-28T23:54:05.581Z,21.3
2017-04-28T23:56:08.169Z,21.3
2017-04-28T23:58:04.947Z,21.3
